createdAt,value
2018-09-30T00:00:18.242Z,6.10
2018-09-30T00:02:46.541Z,5.70
2018-09-30T00:05:14.866Z,6.12
2018-09-30T00:07:43.177Z,6.70
2018-09-30T00:10:11.500Z,5.65
2018-09-30T00:12:39.805Z,6.87
2018-09-30T00:15:08.226Z,6.12
2018-09-30T00:17:36.530Z,6.90
2018-09-30T00:20:05.284Z,6.35
2018-09-30T00:22:33.631Z,6.15
2018-09-30T00:25:07.335Z,5.72
2018-09-30T00:27:35.649Z,5.55
2018-09-30T00:30:04.145Z,5.25
2018-09-30T00:32:32.465Z,5.50
2018-09-30T00:35:00.785Z,4.90
2018-09-30T00:37:29.085Z,5.85
2018-09-30T00:39:57.415Z,6.15
2018-09-30T00:42:26.401Z,6.00
2018-09-30T00:44:54.728Z,7.08
2018-09-30T00:47:23.320Z,5.83
2018-09-30T00:49:51.680Z,6.60
2018-09-30T00:52:19.989Z,6.35
2018-09-30T00:54:48.311Z,6.05
2018-09-30T00:57:16.694Z,5.60
2018-09-30T00:59:45.049Z,6.03
2018-09-30T01:02:13.384Z,5.83
2018-09-30T01:04:41.792Z,6.70
2018-09-30T01:07:10.113Z,5.95
2018-09-30T01:09:39.125Z,6.67
2018-09-30T01:12:07.477Z,7.40
2018-09-30T01:14:35.789Z,7.35
2018-09-30T01:17:04.229Z,9.10
2018-09-30T01:19:32.536Z,7.12
2018-09-30T01:22:00.878Z,6.83
2018-09-30T01:24:29.189Z,5.95
2018-09-30T01:26:57.557Z,7.58
2018-09-30T01:29:25.860Z,6.55
2018-09-30T01:31:54.193Z,6.10
2018-09-30T01:34:22.521Z,5.92
2018-09-30T01:36:50.906Z,6.47
2018-09-30T01:39:19.585Z,5.85
2018-09-30T01:41:47.898Z,5.30
2018-09-30T01:44:16.235Z,5.72
2018-09-30T01:46:44.586Z,5.75
2018-09-30T01:49:12.892Z,6.22
2018-09-30T01:51:41.240Z,5.80
2018-09-30T01:54:09.544Z,4.92
2018-09-30T01:56:37.855Z,5.35
2018-09-30T01:59:06.177Z,5.30
2018-09-30T02:01:34.553Z,5.75
2018-09-30T02:04:02.857Z,5.65
2018-09-30T02:06:31.165Z,4.90
2018-09-30T02:08:59.468Z,5.87
2018-09-30T02:11:27.801Z,5.50
2018-09-30T02:13:56.188Z,5.70
2018-09-30T02:16:24.488Z,4.65
2018-09-30T02:18:52.834Z,6.25
2018-09-30T02:21:21.154Z,5.75
2018-09-30T02:23:49.465Z,4.55
2018-09-30T02:26:17.801Z,6.15
2018-09-30T02:28:46.416Z,6.90
2018-09-30T02:31:14.807Z,5.85
2018-09-30T02:33:43.139Z,5.90
2018-09-30T02:36:11.431Z,5.47
2018-09-30T02:38:39.789Z,6.90
2018-09-30T02:41:08.921Z,6.80
2018-09-30T02:43:37.277Z,6.60
2018-09-30T02:46:05.610Z,6.35
2018-09-30T02:48:33.913Z,6.40
2018-09-30T02:51:02.247Z,6.67
2018-09-30T02:53:33.319Z,6.28
2018-09-30T02:56:01.686Z,5.60
2018-09-30T02:58:30.148Z,5.50
2018-09-30T03:00:58.548Z,4.33
2018-09-30T03:03:26.865Z,6.37
2018-09-30T03:05:55.176Z,5.72
2018-09-30T03:08:28.834Z,6.50
2018-09-30T03:10:57.173Z,7.05
2018-09-30T03:13:25.572Z,6.55
2018-09-30T03:15:53.877Z,6.10
2018-09-30T03:18:22.209Z,7.35
2018-09-30T03:20:50.530Z,7.30
2018-09-30T03:23:18.833Z,9.88
2018-09-30T03:25:47.242Z,8.95
2018-09-30T03:28:16.185Z,7.67
2018-09-30T03:30:44.497Z,7.50
2018-09-30T03:33:13.986Z,6.60
2018-09-30T03:35:42.304Z,6.72
2018-09-30T03:38:11.006Z,6.85
2018-09-30T03:40:39.310Z,5.58
2018-09-30T03:43:07.633Z,7.20
2018-09-30T03:45:35.939Z,6.00
2018-09-30T03:48:04.258Z,6.15
2018-09-30T03:50:32.589Z,5.85
2018-09-30T03:53:00.910Z,5.78
2018-09-30T03:55:29.257Z,6.12
2018-09-30T03:57:58.312Z,5.67
2018-09-30T04:00:26.627Z,5.75
2018-09-30T04:02:54.953Z,5.00
2018-09-30T04:05:23.256Z,5.42
2018-09-30T04:07:51.612Z,6.08
2018-09-30T04:10:19.938Z,5.12
2018-09-30T04:12:48.674Z,5.60
2018-09-30T04:15:16.974Z,5.42
2018-09-30T04:17:45.302Z,5.10
2018-09-30T04:20:13.645Z,5.90
2018-09-30T04:22:41.999Z,4.78
2018-09-30T04:25:10.305Z,4.67
2018-09-30T04:27:38.614Z,5.90
2018-09-30T04:30:07.690Z,5.20
2018-09-30T04:32:35.985Z,5.60
2018-09-30T04:35:04.368Z,5.65
2018-09-30T04:37:32.773Z,5.55
2018-09-30T04:40:01.786Z,4.70
2018-09-30T04:42:30.101Z,6.45
2018-09-30T04:44:58.465Z,4.97
2018-09-30T04:47:26.773Z,4.67
2018-09-30T04:49:55.169Z,5.03
2018-09-30T04:52:23.454Z,5.47
2018-09-30T04:54:51.777Z,5.28
2018-09-30T04:57:20.142Z,5.10
2018-09-30T04:59:48.662Z,4.78
2018-09-30T05:02:16.972Z,4.90
2018-09-30T05:04:45.293Z,5.00
2018-09-30T05:07:13.606Z,5.75
2018-09-30T05:09:41.968Z,5.60
2018-09-30T05:12:10.289Z,5.62
2018-09-30T05:14:38.621Z,5.30
2018-09-30T05:17:07.568Z,4.75
2018-09-30T05:19:35.972Z,4.72
2018-09-30T05:22:04.345Z,5.17
2018-09-30T05:24:32.677Z,4.10
2018-09-30T05:27:05.217Z,5.00
2018-09-30T05:29:49.672Z,4.37
2018-09-30T05:32:21.777Z,4.72
2018-09-30T05:34:50.091Z,4.75
2018-09-30T05:37:19.067Z,4.37
2018-09-30T05:39:47.397Z,5.05
2018-09-30T05:42:15.704Z,5.00
2018-09-30T05:44:44.004Z,4.45
2018-09-30T05:47:12.316Z,5.45
2018-09-30T05:49:40.775Z,4.58
2018-09-30T05:52:09.092Z,4.35
2018-09-30T05:54:37.465Z,4.85
2018-09-30T05:57:11.428Z,4.90
2018-09-30T05:59:42.213Z,4.08
2018-09-30T06:02:13.451Z,5.60
2018-09-30T06:04:48.699Z,4.40
2018-09-30T06:07:21.175Z,5.08
2018-09-30T06:09:54.524Z,5.22
2018-09-30T06:12:27.858Z,5.00
2018-09-30T06:15:01.725Z,4.22
2018-09-30T06:17:33.018Z,6.03
2018-09-30T06:20:05.461Z,4.95
2018-09-30T06:22:37.555Z,5.50
2018-09-30T06:25:08.900Z,5.08
2018-09-30T06:27:48.761Z,4.80
2018-09-30T06:30:22.241Z,4.85
2018-09-30T06:32:56.182Z,5.10
2018-09-30T06:35:27.979Z,5.80
2018-09-30T06:37:56.505Z,5.45
2018-09-30T06:40:25.051Z,5.50
2018-09-30T06:42:53.344Z,4.05
2018-09-30T06:45:22.481Z,4.85
2018-09-30T06:47:51.378Z,5.15
2018-09-30T06:50:19.777Z,5.00
2018-09-30T06:52:48.144Z,4.92
2018-09-30T06:55:16.462Z,4.90
2018-09-30T06:57:45.871Z,5.33
2018-09-30T07:00:14.197Z,4.40
2018-09-30T07:02:42.505Z,4.97
2018-09-30T07:05:12.197Z,6.37
2018-09-30T07:07:40.507Z,5.70
2018-09-30T07:10:08.851Z,6.60
2018-09-30T07:12:37.196Z,4.75
2018-09-30T07:15:09.587Z,5.12
2018-09-30T07:17:37.972Z,4.90
2018-09-30T07:20:06.539Z,5.03
2018-09-30T07:22:36.983Z,4.85
2018-09-30T07:25:05.447Z,4.53
2018-09-30T07:27:38.196Z,4.97
2018-09-30T07:30:10.514Z,3.87
2018-09-30T07:32:38.905Z,4.00
2018-09-30T07:35:12.595Z,5.12
2018-09-30T07:37:41.681Z,5.90
2018-09-30T07:40:10.114Z,4.78
2018-09-30T07:42:38.524Z,5.50
2018-09-30T07:45:06.842Z,4.95
2018-09-30T07:47:35.261Z,5.03
2018-09-30T07:50:03.668Z,4.45
2018-09-30T07:52:32.097Z,6.55
2018-09-30T07:55:00.399Z,5.03
2018-09-30T07:57:29.049Z,6.22
2018-09-30T07:59:57.364Z,4.37
2018-09-30T08:02:25.674Z,4.70
2018-09-30T08:04:54.016Z,4.75
2018-09-30T08:07:22.328Z,4.78
2018-09-30T08:09:51.045Z,4.80
2018-09-30T08:12:19.356Z,3.45
2018-09-30T08:14:48.208Z,4.80
2018-09-30T08:17:16.516Z,4.40
2018-09-30T08:19:44.845Z,3.80
2018-09-30T08:22:13.161Z,5.28
2018-09-30T08:24:42.045Z,4.47
2018-09-30T08:27:10.360Z,4.85
2018-09-30T08:29:38.732Z,4.95
2018-09-30T08:32:07.056Z,6.10
2018-09-30T08:34:35.399Z,4.30
2018-09-30T08:37:03.708Z,6.10
2018-09-30T08:39:32.106Z,4.37
2018-09-30T08:42:00.386Z,5.17
2018-09-30T08:44:28.800Z,4.45
2018-09-30T08:46:57.140Z,6.37
2018-09-30T08:49:25.610Z,4.97
2018-09-30T08:51:53.824Z,4.78
2018-09-30T08:54:22.156Z,4.65
2018-09-30T08:56:50.489Z,5.70
2018-09-30T08:59:18.801Z,6.55
2018-09-30T09:01:50.351Z,5.58
2018-09-30T09:04:25.124Z,4.17
2018-09-30T09:07:03.945Z,4.55
2018-09-30T09:09:39.803Z,3.70
2018-09-30T09:12:16.433Z,4.93
2018-09-30T09:14:47.638Z,5.80
2018-09-30T09:17:22.546Z,4.50
2018-09-30T09:19:56.215Z,4.40
2018-09-30T09:22:27.919Z,5.87
2018-09-30T09:24:59.151Z,4.83
2018-09-30T09:27:32.628Z,4.87
2018-09-30T09:30:06.722Z,4.90
2018-09-30T09:32:41.601Z,4.77
2018-09-30T09:35:13.684Z,4.43
2018-09-30T09:37:45.714Z,3.37
2018-09-30T09:40:22.270Z,4.60
2018-09-30T09:42:54.543Z,4.90
2018-09-30T09:45:26.330Z,4.23
2018-09-30T09:48:00.679Z,3.30
2018-09-30T09:50:32.583Z,4.57
2018-09-30T09:53:09.146Z,4.40
2018-09-30T09:55:41.690Z,4.40
2018-09-30T09:58:13.061Z,4.37
2018-09-30T10:00:46.207Z,4.10
2018-09-30T10:03:15.916Z,4.73
2018-09-30T10:05:44.469Z,4.13
2018-09-30T10:08:13.056Z,4.67
2018-09-30T10:10:42.234Z,4.20
2018-09-30T10:13:11.192Z,13.70
2018-09-30T10:15:39.605Z,4.70
2018-09-30T10:18:07.949Z,2.83
2018-09-30T10:20:36.371Z,3.13
2018-09-30T10:23:04.740Z,6.30
2018-09-30T10:25:33.120Z,3.53
2018-09-30T10:28:01.821Z,3.90
2018-09-30T10:30:30.141Z,33.40
2018-09-30T10:32:58.580Z,3.90
2018-09-30T10:35:27.340Z,3.30
2018-09-30T10:37:55.834Z,5.13
2018-09-30T10:40:24.189Z,3.50
2018-09-30T10:42:55.560Z,3.87
2018-09-30T10:45:24.094Z,3.30
2018-09-30T10:47:53.433Z,3.50
2018-09-30T10:50:21.776Z,3.40
2018-09-30T10:52:51.281Z,4.97
2018-09-30T10:55:20.025Z,4.97
2018-09-30T10:57:52.251Z,3.43
2018-09-30T11:00:20.986Z,2.83
2018-09-30T11:02:49.660Z,2.93
2018-09-30T11:05:18.031Z,4.17
2018-09-30T11:07:46.449Z,3.40
2018-09-30T11:10:15.719Z,3.53
2018-09-30T11:12:44.069Z,4.30
2018-09-30T11:15:12.434Z,3.87
2018-09-30T11:17:40.764Z,2.90
2018-09-30T11:20:09.359Z,3.27
2018-09-30T11:22:37.860Z,3.03
2018-09-30T11:25:06.160Z,2.70
2018-09-30T11:27:34.479Z,2.80
2018-09-30T11:30:03.569Z,2.53
2018-09-30T11:32:31.885Z,3.30
2018-09-30T11:35:00.214Z,2.53
2018-09-30T11:37:28.565Z,1.90
2018-09-30T11:39:56.975Z,2.70
2018-09-30T11:42:25.355Z,3.57
2018-09-30T11:44:53.709Z,2.63
2018-09-30T11:47:22.238Z,2.43
2018-09-30T11:49:51.144Z,3.13
2018-09-30T11:52:19.909Z,2.30
2018-09-30T11:54:48.229Z,3.37
2018-09-30T11:57:16.857Z,3.27
2018-09-30T11:59:45.189Z,2.50
2018-09-30T12:02:13.552Z,2.60
2018-09-30T12:04:41.929Z,2.90
2018-09-30T12:07:10.261Z,3.17
2018-09-30T12:09:38.601Z,2.70
2018-09-30T12:12:06.953Z,3.27
2018-09-30T12:14:35.292Z,3.60
2018-09-30T12:17:03.646Z,3.70
2018-09-30T12:19:31.989Z,3.47
2018-09-30T12:22:00.320Z,3.33
2018-09-30T12:24:28.579Z,2.33
2018-09-30T12:26:56.971Z,3.23
2018-09-30T12:29:25.550Z,2.83
2018-09-30T12:31:53.947Z,2.97
2018-09-30T12:34:22.332Z,3.43
2018-09-30T12:36:50.668Z,2.90
2018-09-30T12:39:19.053Z,3.10
2018-09-30T12:41:47.360Z,3.27
2018-09-30T12:44:15.737Z,4.07
2018-09-30T12:46:44.062Z,2.70
2018-09-30T12:49:18.389Z,2.67
2018-09-30T12:51:46.752Z,3.00
2018-09-30T12:54:15.107Z,3.10
2018-09-30T12:56:43.493Z,2.80
2018-09-30T12:59:11.813Z,3.40
2018-09-30T13:01:40.194Z,2.93
2018-09-30T13:04:08.553Z,3.50
2018-09-30T13:06:37.227Z,3.37
2018-09-30T13:09:07.653Z,2.80
2018-09-30T13:11:36.064Z,3.00
2018-09-30T13:14:04.487Z,2.60
2018-09-30T13:16:32.924Z,3.20
2018-09-30T13:19:01.273Z,2.90
2018-09-30T13:21:29.621Z,3.30
2018-09-30T13:23:58.115Z,2.90
2018-09-30T13:26:30.985Z,2.80
2018-09-30T13:28:59.363Z,2.80
2018-09-30T13:31:33.098Z,3.20
2018-09-30T13:34:01.505Z,3.23
2018-09-30T13:36:29.839Z,3.17
2018-09-30T13:38:58.206Z,2.40
2018-09-30T13:41:26.617Z,2.43
2018-09-30T13:43:54.997Z,3.00
2018-09-30T13:46:23.373Z,3.30
2018-09-30T13:48:51.728Z,2.50
2018-09-30T13:51:20.082Z,2.73
2018-09-30T13:53:48.440Z,2.83
2018-09-30T13:56:16.814Z,2.80
2018-09-30T13:58:45.161Z,2.53
2018-09-30T14:01:13.496Z,2.63
2018-09-30T14:03:41.820Z,2.90
2018-09-30T14:06:10.133Z,3.03
2018-09-30T14:08:38.485Z,2.40
2018-09-30T14:11:06.836Z,2.60
2018-09-30T14:13:35.177Z,2.17
2018-09-30T14:16:03.557Z,2.30
2018-09-30T14:18:31.938Z,4.13
2018-09-30T14:21:00.260Z,3.10
2018-09-30T14:23:28.604Z,3.30
2018-09-30T14:25:56.909Z,2.70
2018-09-30T14:28:25.340Z,2.00
2018-09-30T14:30:53.808Z,2.70
2018-09-30T14:33:22.143Z,2.30
2018-09-30T14:35:50.472Z,2.70
2018-09-30T14:38:19.212Z,2.50
2018-09-30T14:40:47.618Z,2.27
2018-09-30T14:43:16.640Z,2.57
2018-09-30T14:45:45.000Z,3.17
2018-09-30T14:48:13.384Z,2.57
2018-09-30T14:50:41.680Z,2.70
2018-09-30T14:53:14.466Z,3.13
2018-09-30T14:55:42.804Z,2.90
2018-09-30T14:58:11.161Z,2.30
2018-09-30T15:00:39.596Z,3.97
2018-09-30T15:03:07.984Z,2.40
2018-09-30T15:05:36.346Z,3.77
2018-09-30T15:08:04.764Z,3.10
2018-09-30T15:10:33.138Z,3.20
2018-09-30T15:13:06.105Z,2.40
2018-09-30T15:15:34.485Z,2.90
2018-09-30T15:18:02.870Z,28.57
2018-09-30T15:20:36.359Z,19.73
2018-09-30T15:23:04.766Z,4.50
2018-09-30T15:25:33.824Z,3.47
2018-09-30T15:28:02.141Z,2.20
2018-09-30T15:30:31.432Z,2.57
2018-09-30T15:32:59.841Z,2.87
2018-09-30T15:35:28.273Z,7.43
2018-09-30T15:37:57.257Z,29.80
2018-09-30T15:40:25.667Z,4.40
2018-09-30T15:42:54.127Z,13.80
2018-09-30T15:45:24.275Z,3.80
2018-09-30T15:47:53.986Z,3.00
2018-09-30T15:50:23.202Z,3.20
2018-09-30T15:52:51.546Z,2.53
2018-09-30T15:55:19.840Z,3.10
2018-09-30T15:57:49.508Z,3.40
2018-09-30T16:00:17.828Z,3.13
2018-09-30T16:02:46.184Z,3.43
2018-09-30T16:05:15.072Z,2.40
2018-09-30T16:07:44.220Z,3.00
2018-09-30T16:10:12.609Z,2.70
2018-09-30T16:12:43.043Z,3.50
2018-09-30T16:15:11.416Z,3.60
2018-09-30T16:17:39.769Z,3.50
2018-09-30T16:20:08.181Z,3.80
2018-09-30T16:22:37.156Z,3.57
2018-09-30T16:25:05.795Z,4.67
2018-09-30T16:27:34.109Z,4.50
2018-09-30T16:30:06.225Z,8.07
2018-09-30T16:32:34.542Z,21.20
2018-09-30T16:35:02.956Z,29.00
2018-09-30T16:37:31.221Z,65.67
2018-09-30T16:40:01.920Z,30.93
2018-09-30T16:42:31.285Z,24.20
2018-09-30T16:45:00.004Z,15.40
2018-09-30T16:47:30.238Z,5.87
2018-09-30T16:50:03.154Z,20.63
2018-09-30T16:52:50.756Z,27.83
2018-09-30T16:55:22.108Z,14.37
2018-09-30T16:57:50.490Z,16.87
2018-09-30T17:00:19.754Z,6.10
2018-09-30T17:02:48.072Z,10.77
2018-09-30T17:05:16.414Z,23.60
2018-09-30T17:07:44.852Z,9.33
2018-09-30T17:10:13.160Z,10.20
2018-09-30T17:12:42.612Z,16.70
2018-09-30T17:15:10.979Z,5.00
2018-09-30T17:17:39.329Z,4.33
2018-09-30T17:20:09.032Z,22.87
2018-09-30T17:22:37.408Z,16.07
2018-09-30T17:25:05.790Z,11.90
2018-09-30T17:27:34.113Z,6.43
2018-09-30T17:30:03.365Z,5.23
2018-09-30T17:32:31.676Z,6.60
2018-09-30T17:35:00.018Z,10.03
2018-09-30T17:37:28.364Z,6.03
2018-09-30T17:39:56.716Z,18.90
2018-09-30T17:42:25.026Z,11.90
2018-09-30T17:44:53.365Z,11.87
2018-09-30T17:47:21.681Z,9.57
2018-09-30T17:49:50.400Z,8.10
2018-09-30T17:52:19.512Z,8.77
2018-09-30T17:54:48.622Z,8.90
2018-09-30T17:57:17.713Z,9.17
2018-09-30T17:59:46.158Z,7.50
2018-09-30T18:05:55.302Z,6.27
2018-09-30T18:08:24.834Z,6.27
2018-09-30T18:10:57.069Z,7.23
2018-09-30T18:13:30.656Z,8.57
2018-09-30T18:16:07.315Z,6.90
2018-09-30T18:18:43.430Z,8.20
2018-09-30T18:21:13.558Z,6.40
2018-09-30T18:23:50.361Z,6.97
2018-09-30T18:26:19.436Z,6.63
2018-09-30T18:28:55.812Z,6.63
2018-09-30T18:31:27.798Z,7.70
2018-09-30T18:33:59.317Z,8.10
2018-09-30T18:36:33.284Z,7.70
2018-09-30T18:39:07.086Z,8.27
2018-09-30T18:41:38.560Z,8.03
2018-09-30T18:44:16.687Z,9.37
2018-09-30T18:49:31.922Z,9.30
2018-09-30T18:52:09.369Z,8.63
2018-09-30T18:54:42.448Z,9.20
2018-09-30T18:57:16.400Z,8.87
2018-09-30T18:59:52.013Z,10.03
2018-09-30T19:02:22.454Z,9.83
2018-09-30T19:04:52.933Z,9.50
2018-09-30T19:07:24.011Z,9.57
2018-09-30T19:10:01.904Z,10.13
2018-09-30T19:12:43.300Z,9.20
2018-09-30T19:15:15.378Z,9.50
2018-09-30T19:17:49.150Z,8.77
2018-09-30T19:20:23.440Z,9.80
2018-09-30T19:22:58.661Z,9.60
2018-09-30T19:25:34.203Z,10.20
2018-09-30T19:28:08.521Z,10.30
2018-09-30T19:30:45.595Z,9.73
2018-09-30T19:33:18.664Z,11.90
2018-09-30T19:35:54.889Z,10.87
2018-09-30T19:38:31.113Z,9.90
2018-09-30T19:41:00.680Z,11.73
2018-09-30T19:43:29.222Z,10.07
2018-09-30T19:45:59.160Z,10.73
2018-09-30T19:48:29.024Z,10.47
2018-09-30T19:50:57.330Z,10.60
2018-09-30T19:53:25.672Z,10.70
2018-09-30T19:55:54.784Z,10.60
2018-09-30T19:58:23.210Z,9.30
2018-09-30T20:00:51.559Z,8.47
2018-09-30T20:03:19.899Z,10.20
2018-09-30T20:05:48.676Z,8.73
2018-09-30T20:08:17.079Z,9.60
2018-09-30T20:10:45.404Z,8.00
2018-09-30T20:13:13.757Z,8.40
2018-09-30T20:15:42.112Z,7.95
2018-09-30T20:18:10.461Z,8.33
2018-09-30T20:20:38.855Z,8.23
2018-09-30T20:23:07.283Z,8.38
2018-09-30T20:25:35.762Z,7.28
2018-09-30T20:28:04.108Z,7.47
2018-09-30T20:30:33.112Z,8.30
2018-09-30T20:33:02.442Z,6.00
2018-09-30T20:35:36.149Z,7.10
2018-09-30T20:38:04.776Z,6.55
2018-09-30T20:40:36.577Z,7.03
2018-09-30T20:43:04.904Z,7.55
2018-09-30T20:45:33.269Z,9.18
2018-09-30T20:48:01.913Z,7.60
2018-09-30T20:50:30.310Z,6.55
2018-09-30T20:52:58.705Z,7.67
2018-09-30T20:55:27.249Z,8.05
2018-09-30T20:57:55.729Z,7.05
2018-09-30T21:00:24.950Z,7.62
2018-09-30T21:02:53.385Z,7.53
2018-09-30T21:06:32.074Z,7.95
2018-09-30T21:09:00.633Z,7.95
2018-09-30T21:11:28.989Z,8.65
2018-09-30T21:13:57.620Z,8.30
2018-09-30T21:16:26.036Z,8.28
2018-09-30T21:18:54.541Z,8.65
2018-09-30T21:21:22.918Z,7.15
2018-09-30T21:23:51.253Z,7.77
2018-09-30T21:26:19.594Z,7.20
2018-09-30T21:28:47.998Z,7.70
2018-09-30T21:31:16.364Z,10.20
2018-09-30T21:33:45.466Z,7.22
2018-09-30T21:36:13.894Z,8.10
2018-09-30T21:38:42.208Z,9.08
2018-09-30T21:41:10.664Z,8.10
2018-09-30T21:43:39.002Z,7.17
2018-09-30T21:46:07.369Z,6.50
2018-09-30T21:48:35.743Z,7.90
2018-09-30T21:51:04.192Z,8.38
2018-09-30T21:53:32.513Z,6.47
2018-09-30T21:56:00.897Z,7.55
2018-09-30T21:58:29.241Z,4.87
2018-09-30T22:00:58.956Z,5.58
2018-09-30T22:03:27.602Z,5.30
2018-09-30T22:05:55.998Z,5.87
2018-09-30T22:08:24.320Z,4.97
2018-09-30T22:10:52.661Z,5.15
2018-09-30T22:13:21.041Z,5.40
2018-09-30T22:15:49.632Z,4.65
2018-09-30T22:18:18.624Z,4.60
2018-09-30T22:20:47.036Z,5.92
2018-09-30T22:23:15.497Z,5.40
2018-09-30T22:25:44.318Z,5.67
2018-09-30T22:28:12.692Z,4.83
2018-09-30T22:30:41.020Z,5.20
2018-09-30T22:33:09.376Z,6.28
2018-09-30T22:35:37.691Z,5.65
2018-09-30T22:38:06.714Z,6.10
2018-09-30T22:40:35.052Z,5.40
2018-09-30T22:43:03.425Z,7.37
2018-09-30T22:45:31.836Z,7.20
2018-09-30T22:48:00.137Z,7.05
2018-09-30T22:50:29.255Z,7.67
2018-09-30T22:52:57.580Z,6.37
2018-09-30T22:55:25.941Z,7.55
2018-09-30T22:57:54.278Z,7.65
2018-09-30T23:00:22.596Z,7.20
2018-09-30T23:02:50.950Z,7.07
2018-09-30T23:05:19.261Z,8.00
2018-09-30T23:07:47.605Z,6.70
2018-09-30T23:10:15.938Z,13.05
2018-09-30T23:12:44.277Z,12.83
2018-09-30T23:15:12.660Z,7.50
2018-09-30T23:17:40.981Z,9.43
2018-09-30T23:20:15.200Z,9.15
2018-09-30T23:22:43.740Z,9.30
2018-09-30T23:25:12.078Z,7.90
2018-09-30T23:27:40.411Z,8.40
2018-09-30T23:30:08.941Z,7.67
2018-09-30T23:32:37.784Z,6.97
2018-09-30T23:35:06.263Z,7.92
2018-09-30T23:37:35.292Z,9.30
2018-09-30T23:40:03.862Z,6.72
2018-09-30T23:42:32.227Z,9.15
2018-09-30T23:45:00.562Z,7.37
2018-09-30T23:47:28.901Z,8.18
2018-09-30T23:49:57.217Z,11.85
2018-09-30T23:52:25.578Z,9.38
2018-09-30T23:54:53.893Z,10.48
2018-09-30T23:57:22.225Z,10.00
2018-09-30T23:59:51.043Z,11.18
